Time;durP1;ratioP1;P1;durP2;ratioP2;P2;SDS_P1;SDS_P2;PMS_P1;PMS_P2;Temp;Humidity;BMP_temperature;BMP_pressure;BME280_temperature;BME280_humidity;BME280_pressure;Samples;Min_cycle;Max_cycle;Signal;HPM_P1;HPM_P2
2023/05/08 00:01:04;;;;;;;1.50;1.40;;;23.50;48.00;;;;;;5013261;28;20057;-58
2023/05/08 00:03:32;;;;;;;1.60;1.50;;;23.50;48.10;;;;;;5013135;28;20409;-58
2023/05/08 00:06:03;;;;;;;1.42;1.42;;;23.50;48.00;;;;;;5012632;28;20050;-57
2023/05/08 00:08:30;;;;;;;1.60;1.50;;;23.50;48.10;;;;;;5012820;28;20042;-57
2023/05/08 00:10:57;;;;;;;1.50;1.40;;;23.50;48.10;;;;;;5012333;28;20137;-58
2023/05/08 00:13:24;;;;;;;1.10;1.10;;;23.50;48.00;;;;;;5013295;28;20482;-58
2023/05/08 00:15:52;;;;;;;1.42;1.33;;;23.50;48.00;;;;;;5016561;28;20058;-58
2023/05/08 00:18:19;;;;;;;1.10;1.10;;;23.40;48.00;;;;;;5017031;28;20410;-56
2023/05/08 00:20:46;;;;;;;1.23;1.23;;;23.50;48.60;;;;;;5016831;28;20050;-58
2023/05/08 00:23:13;;;;;;;1.15;1.15;;;23.40;48.00;;;;;;5016687;28;20050;-58
2023/05/08 00:25:40;;;;;;;1.60;1.50;;;23.50;48.00;;;;;;5016486;28;20052;-58
2023/05/08 00:28:07;;;;;;;1.20;1.20;;;23.40;48.00;;;;;;5016761;28;20128;-58
2023/05/08 00:30:34;;;;;;;1.20;1.20;;;23.40;48.00;;;;;;5015720;28;20128;-57
2023/05/08 00:33:01;;;;;;;1.50;1.40;;;23.40;48.00;;;;;;5016478;28;20136;-58
2023/05/08 00:35:29;;;;;;;1.35;1.35;;;23.40;48.00;;;;;;5015231;28;20042;-57
2023/05/08 00:37:56;;;;;;;0.95;0.95;;;23.40;48.00;;;;;;5015189;28;20072;-58
2023/05/08 00:40:23;;;;;;;1.25;1.20;;;23.40;48.00;;;;;;5016177;28;20133;-58
2023/05/08 00:42:50;;;;;;;1.00;1.00;;;23.40;48.00;;;;;;5015779;28;20042;-58
2023/05/08 00:45:17;;;;;;;1.15;1.10;;;23.40;48.00;;;;;;5009153;28;20057;-58
2023/05/08 00:47:44;;;;;;;1.20;1.20;;;23.40;48.10;;;;;;4996380;28;20042;-58
2023/05/08 00:50:12;;;;;;;1.23;1.23;;;23.40;48.10;;;;;;4995723;28;20458;-58
2023/05/08 00:52:41;;;;;;;1.02;1.02;;;23.40;48.20;;;;;;4995958;28;20114;-58
2023/05/08 00:55:08;;;;;;;1.42;1.33;;;23.40;48.20;;;;;;4995856;28;20054;-58
2023/05/08 00:57:36;;;;;;;1.10;1.10;;;23.40;48.20;;;;;;4996190;28;20526;-58
2023/05/08 01:00:04;;;;;;;1.08;1.08;;;23.40;48.20;;;;;;4995608;28;20112;-58
2023/05/08 01:02:32;;;;;;;1.70;1.60;;;23.40;48.30;;;;;;4996235;28;20081;-58
2023/05/08 01:05:00;;;;;;;1.13;1.13;;;23.40;48.20;;;;;;4994317;28;20056;-58
2023/05/08 01:07:27;;;;;;;1.33;1.30;;;23.40;48.20;;;;;;4996310;28;20054;-58
2023/05/08 01:09:54;;;;;;;1.33;1.23;;;23.40;48.10;;;;;;4994902;28;20046;-58
2023/05/08 01:12:55;;;;;;;1.50;1.40;;;23.40;48.10;;;;;;4996221;28;20081;-58
2023/05/08 01:15:53;;;;;;;1.00;1.00;;;23.40;48.10;;;;;;4996012;28;20542;-58
2023/05/08 01:18:35;;;;;;;1.45;1.38;;;23.40;48.20;;;;;;4994958;28;20054;-58
2023/05/08 01:21:23;;;;;;;1.63;1.52;;;23.30;48.10;;;;;;4994994;28;20057;-58
2023/05/08 01:24:18;;;;;;;1.17;1.15;;;23.30;48.10;;;;;;4995394;28;20050;-58
2023/05/08 01:27:17;;;;;;;1.23;1.23;;;23.40;48.10;;;;;;4994880;28;20129;-58
2023/05/08 01:30:24;;;;;;;1.05;1.05;;;23.30;48.10;;;;;;4994342;28;20129;-58
2023/05/08 01:32:59;;;;;;;1.42;1.33;;;23.30;48.10;;;;;;4995793;28;20085;-58
2023/05/08 01:35:31;;;;;;;1.13;1.10;;;23.30;48.10;;;;;;4996048;28;20042;-57
2023/05/08 01:38:06;;;;;;;1.23;1.23;;;23.30;48.10;;;;;;4994164;28;20133;-58
2023/05/08 01:40:43;;;;;;;1.00;1.00;;;23.30;48.10;;;;;;4995340;28;20050;-58
2023/05/08 01:43:28;;;;;;;1.48;1.40;;;23.30;48.00;;;;;;4995585;28;20046;-58
2023/05/08 01:45:58;;;;;;;0.90;0.90;;;23.30;48.10;;;;;;4994949;28;20054;-58
2023/05/08 01:48:41;;;;;;;1.43;1.33;;;23.30;48.00;;;;;;4995805;28;20046;-58
2023/05/08 01:51:16;;;;;;;1.10;1.10;;;23.30;48.10;;;;;;4994237;28;20486;-58
2023/05/08 01:53:50;;;;;;;1.10;1.10;;;23.30;48.10;;;;;;4995093;28;20491;-58
2023/05/08 01:56:21;;;;;;;2.15;1.30;;;23.30;48.00;;;;;;4995233;28;20480;-58
2023/05/08 01:58:51;;;;;;;1.23;1.23;;;23.30;48.10;;;;;;4994210;28;20505;-58
2023/05/08 02:01:23;;;;;;;1.20;1.20;;;23.30;48.00;;;;;;4995254;28;20069;-58
2023/05/08 02:03:52;;;;;;;1.42;1.42;;;23.30;48.00;;;;;;4995032;28;20411;-58
2023/05/08 02:06:21;;;;;;;1.20;1.20;;;23.20;48.00;;;;;;4994004;28;20050;-58
2023/05/08 02:08:50;;;;;;;1.30;1.20;;;23.20;48.00;;;;;;4994835;28;20046;-58
2023/05/08 02:11:18;;;;;;;1.35;1.35;;;23.20;48.00;;;;;;4995036;28;20495;-58
2023/05/08 02:13:47;;;;;;;1.17;1.10;;;23.20;48.00;;;;;;4995134;28;20046;-58
2023/05/08 02:16:16;;;;;;;1.33;1.33;;;23.20;48.10;;;;;;4994875;28;20138;-57
2023/05/08 02:18:51;;;;;;;1.60;1.50;;;23.20;48.10;;;;;;4994863;28;20054;-58
2023/05/08 02:21:21;;;;;;;1.55;1.45;;;23.20;48.20;;;;;;4993955;28;20141;-57
2023/05/08 02:23:49;;;;;;;1.15;1.15;;;23.20;48.20;;;;;;4995021;28;20051;-58
2023/05/08 02:26:17;;;;;;;1.27;1.27;;;23.20;48.20;;;;;;4993376;28;20054;-58
2023/05/08 02:28:45;;;;;;;1.50;1.40;;;23.20;48.30;;;;;;4992944;28;20104;-58
2023/05/08 02:31:14;;;;;;;1.50;1.40;;;23.20;48.30;;;;;;4993211;28;20407;-58
2023/05/08 02:33:42;;;;;;;1.35;1.35;;;23.10;48.20;;;;;;4994635;28;20057;-58
2023/05/08 02:36:12;;;;;;;1.38;1.15;;;23.10;48.20;;;;;;4994134;28;20611;-57
2023/05/08 02:38:43;;;;;;;1.08;1.08;;;23.10;48.20;;;;;;4994596;28;20050;-57
2023/05/08 02:41:11;;;;;;;;;;;23.10;48.10;;;;;;4994630;28;20064;-58
2023/05/08 02:43:38;;;;;;;1.70;1.60;;;23.10;48.10;;;;;;4993671;28;20020;-57
2023/05/08 02:46:15;;;;;;;1.15;1.15;;;23.10;48.10;;;;;;4993782;28;20057;-58
2023/05/08 02:49:07;;;;;;;1.70;1.60;;;23.20;48.10;;;;;;4994411;28;20431;-58
2023/05/08 02:51:56;;;;;;;1.60;1.50;;;23.20;48.00;;;;;;4994468;28;20144;-58
2023/05/08 02:54:42;;;;;;;1.60;1.50;;;23.20;48.00;;;;;;4993999;28;20080;-58
2023/05/08 02:57:42;;;;;;;1.83;1.73;;;23.20;48.00;;;;;;4993671;28;20492;-58
2023/05/08 03:00:21;;;;;;;1.30;1.30;;;23.20;48.00;;;;;;4992598;28;20495;-58
2023/05/08 03:03:20;;;;;;;1.67;1.57;;;23.20;47.90;;;;;;4993805;28;20046;-58
2023/05/08 03:05:52;;;;;;;1.60;1.52;;;23.20;47.90;;;;;;4993346;28;20050;-57
2023/05/08 03:08:29;;;;;;;1.58;1.50;;;23.10;47.90;;;;;;4994568;28;20133;-57
2023/05/08 03:11:01;;;;;;;1.70;1.45;;;23.10;47.90;;;;;;4992839;28;20050;-57
2023/05/08 03:13:33;;;;;;;1.73;1.63;;;23.10;47.90;;;;;;4994301;28;20046;-58
2023/05/08 03:16:03;;;;;;;1.80;1.70;;;23.10;47.90;;;;;;4993419;28;20054;-58
2023/05/08 03:18:35;;;;;;;1.33;1.30;;;23.10;47.90;;;;;;4994034;28;20492;-58
2023/05/08 03:21:04;;;;;;;1.83;1.67;;;23.10;47.90;;;;;;4992926;28;20096;-58
2023/05/08 03:23:34;;;;;;;1.80;1.70;;;23.10;47.90;;;;;;4993683;28;20056;-58
2023/05/08 03:26:03;;;;;;;1.40;1.40;;;23.10;47.90;;;;;;4992527;28;20644;-58
2023/05/08 03:28:31;;;;;;;1.70;1.60;;;23.10;47.90;;;;;;4993797;28;20049;-57
2023/05/08 03:31:01;;;;;;;1.40;1.33;;;23.10;48.00;;;;;;5000944;28;20574;-57
2023/05/08 03:33:31;;;;;;;1.77;1.67;;;23.10;47.90;;;;;;5010127;28;20049;-57
2023/05/08 03:35:58;;;;;;;1.90;1.80;;;23.10;47.90;;;;;;5012860;28;20049;-58
2023/05/08 03:38:26;;;;;;;1.60;1.50;;;23.10;48.00;;;;;;5011137;28;20077;-57
2023/05/08 03:40:53;;;;;;;1.48;1.48;;;23.10;47.90;;;;;;5013638;28;20125;-58
2023/05/08 03:43:21;;;;;;;1.70;1.60;;;23.10;48.00;;;;;;5012631;28;20127;-58
2023/05/08 03:45:49;;;;;;;1.80;1.70;;;23.00;48.00;;;;;;5002052;28;20049;-58
2023/05/08 03:48:18;;;;;;;1.70;1.60;;;23.10;48.10;;;;;;4996085;28;20137;-56
2023/05/08 03:50:46;;;;;;;1.58;1.48;;;23.00;48.10;;;;;;4996774;28;20060;-58
2023/05/08 03:53:13;;;;;;;1.48;1.38;;;23.00;48.10;;;;;;4997530;28;20494;-58
2023/05/08 03:55:40;;;;;;;1.90;1.80;;;23.00;48.20;;;;;;4997572;28;20053;-57
2023/05/08 03:58:23;;;;;;;2.42;1.80;;;23.00;48.10;;;;;;4997230;28;20042;-57
2023/05/08 04:01:19;;;;;;;2.25;1.88;;;23.00;48.10;;;;;;4997231;28;20046;-57
2023/05/08 04:04:01;;;;;;;1.40;1.30;;;23.00;48.00;;;;;;5004768;28;20056;-58
2023/05/08 04:06:49;;;;;;;1.70;1.60;;;23.00;48.00;;;;;;5016793;28;20049;-58
2023/05/08 04:09:30;;;;;;;1.90;1.80;;;23.10;48.00;;;;;;5011091;28;20366;-57
2023/05/08 04:12:04;;;;;;;1.90;1.80;;;23.00;47.80;;;;;;5008564;28;20084;-57
2023/05/08 04:14:41;;;;;;;1.88;1.77;;;23.10;47.80;;;;;;5010363;28;20414;-58
2023/05/08 04:17:11;;;;;;;2.20;2.05;;;23.10;47.70;;;;;;5016195;28;20483;-58
2023/05/08 04:19:44;;;;;;;1.70;1.60;;;23.10;47.70;;;;;;5009238;28;20050;-58
2023/05/08 04:22:11;;;;;;;3.95;2.13;;;23.10;47.60;;;;;;5012340;28;20058;-58
2023/05/08 04:24:43;;;;;;;2.15;2.03;;;23.10;47.60;;;;;;5014890;28;20050;-58
2023/05/08 04:27:12;;;;;;;2.60;2.40;;;23.10;47.60;;;;;;4996445;28;20085;-57
2023/05/08 04:29:39;;;;;;;1.95;1.85;;;23.10;47.50;;;;;;4995295;28;20056;-58
2023/05/08 04:32:07;;;;;;;2.03;1.85;;;23.10;47.50;;;;;;5010996;28;20053;-58
2023/05/08 04:34:36;;;;;;;2.20;2.10;;;23.10;47.50;;;;;;5009116;28;20038;-58
2023/05/08 04:37:06;;;;;;;2.53;2.40;;;23.10;47.20;;;;;;5002395;28;20494;-57
2023/05/08 04:39:33;;;;;;;;;;;23.10;46.80;;;;;;5007738;28;20084;-58
2023/05/08 04:42:02;;;;;;;2.15;2.05;;;23.10;46.70;;;;;;5004962;28;19928;-58
2023/05/08 04:44:31;;;;;;;2.03;1.92;;;23.10;46.50;;;;;;5029959;28;20053;-59
2023/05/08 04:46:59;;;;;;;1.90;1.80;;;23.10;46.50;;;;;;5022027;28;20046;-57
2023/05/08 04:49:26;;;;;;;2.05;1.95;;;23.10;46.40;;;;;;5011133;28;20058;-57
2023/05/08 04:51:53;;;;;;;2.95;2.30;;;23.10;46.40;;;;;;5016054;28;20092;-58
2023/05/08 04:54:20;;;;;;;2.05;1.95;;;23.10;46.20;;;;;;5015561;28;20042;-58
2023/05/08 04:56:47;;;;;;;3.05;2.42;;;23.10;46.00;;;;;;5015490;28;20081;-57
2023/05/08 04:59:14;;;;;;;2.22;1.70;;;23.10;45.90;;;;;;4998654;28;20138;-57
2023/05/08 05:01:42;;;;;;;2.47;2.20;;;23.20;45.70;;;;;;4999470;28;20542;-58
2023/05/08 05:04:09;;;;;;;2.10;2.00;;;23.20;45.60;;;;;;4999002;28;20042;-58
2023/05/08 05:06:36;;;;;;;1.85;1.73;;;23.20;45.30;;;;;;5005207;28;20054;-59
2023/05/08 05:09:04;;;;;;;2.22;1.98;;;23.20;45.30;;;;;;5014742;28;20045;-58
2023/05/08 05:11:31;;;;;;;1.95;1.85;;;23.30;45.10;;;;;;5013626;28;20096;-58
2023/05/08 05:13:58;;;;;;;1.50;1.45;;;23.30;45.00;;;;;;5008667;28;20042;-57
2023/05/08 05:16:26;;;;;;;2.00;1.90;;;23.30;44.80;;;;;;5002678;28;20050;-61
2023/05/08 05:18:53;;;;;;;1.73;1.63;;;23.40;44.20;;;;;;5011169;28;20096;-59
2023/05/08 05:21:20;;;;;;;2.03;1.92;;;23.40;43.30;;;;;;5013277;28;20054;-59
2023/05/08 05:23:48;;;;;;;3.08;1.60;;;23.40;42.90;;;;;;5003398;28;20057;-59
2023/05/08 05:26:15;;;;;;;2.17;1.98;;;23.40;42.80;;;;;;5007660;28;20131;-60
2023/05/08 05:28:42;;;;;;;1.85;1.73;;;23.40;43.20;;;;;;5009052;28;20046;-60
2023/05/08 05:31:10;;;;;;;1.85;1.75;;;23.40;41.90;;;;;;5004187;28;20065;-60
2023/05/08 05:33:37;;;;;;;2.30;1.55;;;23.40;42.80;;;;;;5004325;28;20061;-60
2023/05/08 05:36:04;;;;;;;1.83;1.73;;;23.40;43.00;;;;;;5006197;28;20433;-60
2023/05/08 05:38:32;;;;;;;2.05;1.75;;;23.40;42.90;;;;;;5001279;28;22611;-60
2023/05/08 05:40:59;;;;;;;1.90;1.73;;;23.50;43.20;;;;;;5002381;28;20064;-60
2023/05/08 05:43:27;;;;;;;1.60;1.50;;;23.50;43.30;;;;;;5005542;28;20133;-59
2023/05/08 05:45:57;;;;;;;1.70;1.60;;;23.50;40.30;;;;;;5000302;28;20469;-60
2023/05/08 05:48:24;;;;;;;;;;;23.40;39.30;;;;;;4997007;28;20568;-58
2023/05/08 05:50:51;;;;;;;2.08;1.30;;;23.20;39.50;;;;;;5000669;28;20377;-59
2023/05/08 05:53:19;;;;;;;2.22;1.30;;;23.10;40.40;;;;;;5003573;28;20145;-59
2023/05/08 05:55:46;;;;;;;2.42;1.50;;;23.10;39.60;;;;;;5002466;28;20052;-59
2023/05/08 05:58:15;;;;;;;4.97;1.25;;;23.00;39.10;;;;;;5001000;28;20050;-58
2023/05/08 06:00:43;;;;;;;1.38;1.30;;;23.00;39.80;;;;;;5000341;28;20065;-60
2023/05/08 06:03:10;;;;;;;1.80;1.35;;;22.90;39.60;;;;;;5004296;28;20054;-60
2023/05/08 06:05:37;;;;;;;1.73;1.63;;;22.90;40.50;;;;;;5006749;28;20064;-60
2023/05/08 06:08:07;;;;;;;1.70;1.30;;;22.90;41.00;;;;;;5000655;28;20060;-60
2023/05/08 06:10:35;;;;;;;1.37;1.20;;;23.00;42.20;;;;;;5005920;28;20048;-60
2023/05/08 06:13:02;;;;;;;2.55;1.63;;;23.00;42.70;;;;;;5002601;28;20050;-60
2023/05/08 06:15:29;;;;;;;2.15;1.40;;;23.10;42.50;;;;;;5003591;28;20057;-60
2023/05/08 06:17:57;;;;;;;2.25;1.92;;;23.10;43.00;;;;;;5005297;28;20058;-62
2023/05/08 06:20:25;;;;;;;1.50;1.40;;;23.20;42.60;;;;;;5003987;28;20053;-59
2023/05/08 06:22:52;;;;;;;2.10;1.17;;;23.30;41.50;;;;;;5004141;28;20050;-61
2023/05/08 06:25:19;;;;;;;4.55;1.48;;;23.30;41.40;;;;;;5003519;28;20042;-60
2023/05/08 06:27:46;;;;;;;3.17;1.63;;;23.30;41.30;;;;;;5003144;28;20053;-61
2023/05/08 06:30:14;;;;;;;1.40;1.30;;;23.30;42.00;;;;;;5003886;28;20487;-60
2023/05/08 06:32:41;;;;;;;1.98;1.73;;;23.30;41.70;;;;;;5004194;28;20375;-59
2023/05/08 06:35:09;;;;;;;1.80;1.70;;;23.30;40.80;;;;;;5004488;28;20501;-61
2023/05/08 06:37:36;;;;;;;2.63;1.77;;;23.30;39.60;;;;;;5003784;28;20049;-61
2023/05/08 06:40:04;;;;;;;2.38;1.73;;;23.30;39.50;;;;;;5007302;28;20458;-59
2023/05/08 06:42:40;;;;;;;2.83;1.52;;;23.20;40.20;;;;;;5007836;28;20112;-59
2023/05/08 06:45:08;;;;;;;2.67;1.67;;;23.30;40.50;;;;;;5005755;28;20092;-62
2023/05/08 06:47:35;;;;;;;3.38;1.48;;;23.30;40.60;;;;;;5000713;28;20062;-60
2023/05/08 06:50:03;;;;;;;2.20;1.90;;;23.30;40.10;;;;;;5005699;28;20049;-60
2023/05/08 06:52:31;;;;;;;1.75;1.42;;;23.30;41.00;;;;;;5006316;28;20060;-59
2023/05/08 06:55:00;;;;;;;2.45;1.30;;;23.40;41.10;;;;;;5006023;28;20046;-57
2023/05/08 06:57:29;;;;;;;3.22;1.10;;;23.50;42.00;;;;;;5005450;28;20410;-57
2023/05/08 06:59:56;;;;;;;2.08;1.40;;;23.60;42.20;;;;;;5006376;28;20123;-58
2023/05/08 07:02:23;;;;;;;2.15;1.67;;;23.60;42.90;;;;;;5004790;28;20112;-55
2023/05/08 07:04:50;;;;;;;1.60;1.08;;;23.70;42.30;;;;;;5000350;28;20065;-50
2023/05/08 07:07:18;;;;;;;1.35;1.05;;;23.80;42.50;;;;;;5002043;28;20072;-58
2023/05/08 07:09:48;;;;;;;1.67;1.27;;;23.80;42.40;;;;;;5005450;28;20061;-56
2023/05/08 07:12:15;;;;;;;;;;;23.90;42.30;;;;;;5004241;28;20113;-55
2023/05/08 07:14:42;;;;;;;1.73;1.30;;;23.90;42.30;;;;;;5001853;28;19940;-58
2023/05/08 07:17:09;;;;;;;2.65;1.30;;;24.00;42.50;;;;;;5005845;28;20383;-58
2023/05/08 07:19:38;;;;;;;3.92;1.73;;;24.00;42.60;;;;;;5002505;28;20064;-58
2023/05/08 07:22:05;;;;;;;1.45;1.35;;;24.10;42.70;;;;;;4997231;28;20064;-56
2023/05/08 07:24:32;;;;;;;1.40;1.27;;;24.10;42.60;;;;;;4999454;28;20046;-58
2023/05/08 07:27:00;;;;;;;1.10;1.00;;;24.20;42.60;;;;;;5002501;28;20088;-60
2023/05/08 07:29:27;;;;;;;1.27;1.17;;;24.20;42.50;;;;;;4998954;28;20050;-58
2023/05/08 07:31:55;;;;;;;2.03;1.92;;;24.30;42.40;;;;;;4999454;28;20050;-57
2023/05/08 07:34:22;;;;;;;1.73;1.20;;;24.30;42.20;;;;;;5002527;28;20056;-58
2023/05/08 07:36:49;;;;;;;3.35;1.20;;;24.30;42.20;;;;;;4999877;28;20470;-59
2023/05/08 07:39:16;;;;;;;2.50;1.30;;;24.30;42.10;;;;;;5001598;28;20085;-59
2023/05/08 07:41:44;;;;;;;1.40;1.30;;;24.40;41.90;;;;;;4998772;28;20062;-57
2023/05/08 07:44:14;;;;;;;1.40;1.27;;;24.40;41.90;;;;;;4998102;28;20100;-59
2023/05/08 07:46:41;;;;;;;1.85;1.50;;;24.50;41.80;;;;;;5000593;28;20057;-59
2023/05/08 07:49:09;;;;;;;2.08;1.33;;;24.50;41.70;;;;;;5001454;28;20056;-58
2023/05/08 07:51:36;;;;;;;1.67;1.40;;;24.50;41.30;;;;;;4998515;28;20068;-58
2023/05/08 07:54:03;;;;;;;1.83;1.60;;;24.50;41.20;;;;;;5001035;28;20052;-58
2023/05/08 07:56:31;;;;;;;1.58;1.00;;;24.50;41.00;;;;;;5001067;28;20521;-58
2023/05/08 07:58:58;;;;;;;1.40;1.30;;;24.50;40.90;;;;;;5000836;28;20093;-57
2023/05/08 08:01:26;;;;;;;1.67;1.33;;;24.60;40.80;;;;;;5001942;28;20070;-59
2023/05/08 08:03:53;;;;;;;3.22;1.50;;;24.60;41.10;;;;;;5006534;28;20038;-58
2023/05/08 08:06:20;;;;;;;3.17;1.75;;;24.60;40.80;;;;;;5002219;28;20108;-59
2023/05/08 08:08:48;;;;;;;2.10;1.25;;;24.70;41.00;;;;;;5003114;28;20054;-59
2023/05/08 08:11:15;;;;;;;1.23;1.13;;;24.70;41.10;;;;;;5003208;28;20077;-58
2023/05/08 08:13:42;;;;;;;7.25;1.48;;;24.70;41.00;;;;;;4999576;28;20052;-59
2023/05/08 08:16:10;;;;;;;1.58;1.30;;;24.70;41.00;;;;;;5001860;28;20052;-59
2023/05/08 08:18:38;;;;;;;1.27;1.17;;;24.70;40.80;;;;;;5006316;28;20231;-58
2023/05/08 08:21:06;;;;;;;2.63;1.38;;;24.80;41.10;;;;;;4999730;28;20478;-60
2023/05/08 08:23:34;;;;;;;2.40;1.20;;;24.80;41.10;;;;;;5004844;28;20045;-59
2023/05/08 08:26:01;;;;;;;2.05;1.70;;;24.90;40.90;;;;;;5006137;28;20060;-57
2023/05/08 08:28:28;;;;;;;2.47;1.20;;;24.90;40.70;;;;;;5006341;28;20057;-58
2023/05/08 08:30:55;;;;;;;2.65;1.40;;;24.90;40.50;;;;;;5002576;28;20474;-59
2023/05/08 08:33:23;;;;;;;1.30;1.20;;;24.90;40.30;;;;;;5003475;28;20104;-57
2023/05/08 08:35:50;;;;;;;2.72;1.25;;;24.90;40.20;;;;;;5005555;28;20471;-58
2023/05/08 08:38:17;;;;;;;1.92;1.70;;;24.90;40.10;;;;;;5006509;28;20065;-59
2023/05/08 08:40:45;;;;;;;6.63;2.10;;;24.90;40.10;;;;;;5004260;28;20462;-57
2023/05/08 08:43:12;;;;;;;1.60;1.48;;;25.00;40.10;;;;;;5007481;28;20562;-57
2023/05/08 08:45:40;;;;;;;1.80;1.52;;;24.90;40.00;;;;;;5007272;28;20080;-56
2023/05/08 08:48:11;;;;;;;2.38;1.40;;;24.90;40.00;;;;;;5023479;28;20050;-57
2023/05/08 08:50:44;;;;;;;1.90;1.80;;;25.00;40.00;;;;;;5007208;28;20450;-58
2023/05/08 08:53:26;;;;;;;2.47;1.30;;;25.00;39.80;;;;;;5006634;28;20050;-58
2023/05/08 08:55:56;;;;;;;2.83;1.45;;;25.00;39.80;;;;;;5003101;28;20499;-56
2023/05/08 08:58:36;;;;;;;2.85;1.40;;;25.10;39.80;;;;;;5006596;28;20045;-58
2023/05/08 09:01:08;;;;;;;1.50;1.40;;;25.00;39.60;;;;;;5003655;28;20056;-57
2023/05/08 09:03:35;;;;;;;3.63;2.28;;;25.10;39.70;;;;;;5003449;28;20104;-58
2023/05/08 09:06:03;;;;;;;2.75;1.30;;;25.10;39.50;;;;;;5004662;28;20045;-58
2023/05/08 09:08:31;;;;;;;6.63;2.00;;;25.10;39.40;;;;;;5018105;28;20574;-58
2023/05/08 09:11:01;;;;;;;3.58;2.13;;;25.10;39.20;;;;;;5020536;28;20046;-57
2023/05/08 09:13:28;;;;;;;2.40;2.00;;;25.10;39.20;;;;;;5000646;28;20148;-58
2023/05/08 09:16:00;;;;;;;1.63;1.52;;;25.20;39.10;;;;;;5001253;28;20041;-58
2023/05/08 09:18:27;;;;;;;2.25;1.33;;;25.20;39.00;;;;;;5001225;28;20058;-58
2023/05/08 09:20:54;;;;;;;2.80;1.55;;;25.30;38.90;;;;;;5004642;28;20140;-58
2023/05/08 09:23:22;;;;;;;2.15;1.75;;;25.30;38.90;;;;;;5007197;28;20087;-55
2023/05/08 09:25:49;;;;;;;2.08;1.98;;;25.30;38.90;;;;;;5005679;28;20042;-58
2023/05/08 09:28:23;;;;;;;2.00;1.85;;;25.40;39.00;;;;;;5003092;28;20135;-57
2023/05/08 09:30:54;;;;;;;2.00;1.90;;;25.40;39.00;;;;;;5001792;28;20501;-57
2023/05/08 09:33:22;;;;;;;3.25;1.80;;;25.40;39.10;;;;;;5008004;28;20160;-57
2023/05/08 09:35:50;;;;;;;2.20;2.00;;;25.40;39.10;;;;;;5009495;28;20049;-58
2023/05/08 09:38:38;;;;;;;1.65;1.50;;;25.40;39.10;;;;;;5004834;28;20132;-58
2023/05/08 09:41:15;;;;;;;3.78;1.95;;;25.50;39.20;;;;;;5004159;28;20056;-57
2023/05/08 09:43:43;;;;;;;1.67;1.58;;;25.50;39.20;;;;;;5006574;28;20071;-59
2023/05/08 09:46:25;;;;;;;2.25;2.05;;;25.50;39.10;;;;;;5002603;28;21512;-58
2023/05/08 09:48:58;;;;;;;2.42;1.95;;;25.50;39.20;;;;;;4999741;28;20081;-58
2023/05/08 09:51:27;;;;;;;2.40;2.05;;;25.50;39.20;;;;;;5006677;28;20088;-56
2023/05/08 09:53:56;;;;;;;4.40;2.15;;;25.60;39.10;;;;;;5009381;28;20054;-60
2023/05/08 09:56:35;;;;;;;6.47;1.65;;;25.60;39.10;;;;;;5008627;28;20046;-59
2023/05/08 09:59:20;;;;;;;3.25;1.83;;;25.70;39.20;;;;;;5007152;28;20401;-59
2023/05/08 10:01:47;;;;;;;4.93;2.00;;;25.70;39.10;;;;;;5007890;28;20502;-57
2023/05/08 10:04:15;;;;;;;6.15;2.20;;;25.70;39.10;;;;;;5007758;28;20046;-58
2023/05/08 10:06:42;;;;;;;2.50;1.98;;;25.70;38.90;;;;;;5010585;28;20054;-56
2023/05/08 10:44:30;;;;;;;2.53;2.00;;;25.90;38.70;;;;;;5003973;28;20078;-59
2023/05/08 10:47:25;;;;;;;3.90;2.45;;;25.90;38.70;;;;;;5006040;28;20406;-57
2023/05/08 10:50:21;;;;;;;2.50;2.30;;;25.90;38.60;;;;;;5003437;28;20137;-59
2023/05/08 10:56:41;;;;;;;2.58;2.25;;;25.90;38.10;;;;;;5002988;28;20482;-58
2023/05/08 10:59:19;;;;;;;6.22;3.00;;;25.90;38.00;;;;;;4999602;28;20068;-59
2023/05/08 11:01:48;;;;;;;2.90;2.53;;;26.00;37.90;;;;;;5001833;28;20054;-59
2023/05/08 11:04:22;;;;;;;2.50;2.30;;;26.00;38.00;;;;;;5003826;28;20046;-58
2023/05/08 11:06:53;;;;;;;2.60;2.40;;;26.00;38.10;;;;;;5002593;28;20513;-58
2023/05/08 11:09:39;;;;;;;;;;;26.00;38.00;;;;;;5002844;28;20141;-59
2023/05/08 11:12:19;;;;;;;5.10;2.30;;;26.00;38.00;;;;;;5007946;28;19921;-59
2023/05/08 11:15:03;;;;;;;2.38;2.17;;;26.00;37.90;;;;;;5002447;28;20476;-58
2023/05/08 11:17:30;;;;;;;3.92;2.97;;;26.10;37.90;;;;;;5000286;28;20168;-59
2023/05/08 11:20:02;;;;;;;2.80;2.58;;;26.10;37.80;;;;;;5002885;28;20058;-60
2023/05/08 11:22:31;;;;;;;7.57;3.47;;;26.10;37.30;;;;;;5005164;28;20058;-60
2023/05/08 11:25:03;;;;;;;3.15;2.85;;;26.10;36.40;;;;;;5003877;28;20086;-59
2023/05/08 11:28:02;;;;;;;3.10;2.80;;;26.00;35.40;;;;;;5003567;28;20042;-60
2023/05/08 11:30:35;;;;;;;4.75;3.30;;;25.90;36.10;;;;;;5003013;28;20079;-61
2023/05/08 11:33:13;;;;;;;5.47;3.33;;;25.80;36.10;;;;;;5002900;28;20456;-59
2023/05/08 11:35:56;;;;;;;3.95;3.58;;;25.70;35.50;;;;;;5004644;28;20092;-61
2023/05/08 11:38:37;;;;;;;5.32;4.28;;;25.60;34.90;;;;;;5005262;28;20100;-60
2023/05/08 11:41:07;;;;;;;4.35;3.95;;;25.50;34.80;;;;;;5005939;28;20065;-63
2023/05/08 11:43:49;;;;;;;3.80;3.38;;;25.30;34.50;;;;;;5002693;28;20140;-60
2023/05/08 11:46:20;;;;;;;3.47;3.10;;;25.10;35.30;;;;;;5001897;28;20069;-59
2023/05/08 11:48:48;;;;;;;3.38;3.08;;;25.00;35.90;;;;;;5003648;28;20045;-61
2023/05/08 11:51:18;;;;;;;5.20;3.35;;;25.00;35.40;;;;;;5006339;28;20045;-60
2023/05/08 11:53:46;;;;;;;;;;;24.90;35.40;;;;;;5002354;28;20042;-56
2023/05/08 11:56:13;;;;;;;6.45;3.20;;;24.90;35.90;;;;;;5002896;28;19921;-57
2023/05/08 11:58:40;;;;;;;3.22;2.83;;;25.00;36.50;;;;;;5003170;28;20573;-57
2023/05/08 12:01:09;;;;;;;3.33;2.80;;;25.00;36.80;;;;;;5005934;28;20057;-58
2023/05/08 12:03:36;;;;;;;3.10;2.78;;;25.10;37.10;;;;;;5002937;28;20506;-58
2023/05/08 12:06:04;;;;;;;2.67;2.30;;;25.10;37.20;;;;;;4999284;28;20049;-58
2023/05/08 12:08:37;;;;;;;3.50;2.70;;;25.30;37.40;;;;;;5000681;28;20058;-58
2023/05/08 12:11:04;;;;;;;3.08;2.78;;;25.40;37.40;;;;;;5005949;28;20092;-59
2023/05/08 12:13:32;;;;;;;2.95;2.75;;;25.50;37.30;;;;;;5004766;28;20137;-56
2023/05/08 12:16:00;;;;;;;2.75;2.55;;;25.60;37.40;;;;;;5008827;28;20576;-58
2023/05/08 12:18:29;;;;;;;3.35;2.70;;;25.70;37.50;;;;;;5007360;28;20046;-58
2023/05/08 12:20:58;;;;;;;3.78;2.60;;;25.70;37.40;;;;;;5009475;28;20121;-58
2023/05/08 12:23:28;;;;;;;4.03;2.20;;;25.80;37.40;;;;;;5002562;28;20057;-59
2023/05/08 12:25:59;;;;;;;2.95;2.60;;;25.80;37.40;;;;;;5009605;28;20072;-58
2023/05/08 12:28:27;;;;;;;3.85;2.72;;;25.80;37.30;;;;;;5004117;28;20053;-58
2023/05/08 12:30:55;;;;;;;2.90;2.70;;;25.80;37.30;;;;;;5007415;28;20048;-58
2023/05/08 12:33:23;;;;;;;2.50;2.30;;;25.90;37.40;;;;;;5001182;28;20045;-59
2023/05/08 12:35:50;;;;;;;2.78;2.40;;;25.90;37.40;;;;;;4998377;28;20041;-63
2023/05/08 12:38:18;;;;;;;3.50;3.20;;;26.00;37.60;;;;;;5006062;28;20057;-58
2023/05/08 12:40:48;;;;;;;2.72;2.53;;;26.00;37.60;;;;;;5007465;28;20049;-58
2023/05/08 12:43:15;;;;;;;4.15;2.70;;;26.00;37.70;;;;;;5002783;28;20056;-58
2023/05/08 12:45:43;;;;;;;2.72;2.53;;;25.90;37.60;;;;;;5003642;28;20535;-60
2023/05/08 12:48:17;;;;;;;3.92;2.78;;;25.90;37.60;;;;;;5002780;28;20093;-56
2023/05/08 12:50:46;;;;;;;4.03;2.70;;;26.00;37.80;;;;;;5010424;28;20132;-58
2023/05/08 12:53:18;;;;;;;3.40;2.45;;;26.00;37.90;;;;;;5006606;28;20046;-58
2023/05/08 12:55:54;;;;;;;5.05;3.03;;;26.00;37.80;;;;;;5006370;28;20057;-62
2023/05/08 12:58:27;;;;;;;3.97;2.92;;;26.10;37.90;;;;;;5005645;28;20497;-60
2023/05/08 13:01:05;;;;;;;3.83;2.90;;;26.10;37.80;;;;;;4988926;28;20135;-59
2023/05/08 13:03:32;;;;;;;3.25;3.03;;;26.20;37.80;;;;;;5004384;28;20050;-60
2023/05/08 13:06:00;;;;;;;2.65;2.45;;;26.20;37.80;;;;;;5007859;28;20064;-59
2023/05/08 13:08:33;;;;;;;4.43;3.55;;;26.20;37.80;;;;;;5005169;28;20398;-58
2023/05/08 13:11:03;;;;;;;5.50;4.40;;;26.20;37.60;;;;;;5002330;28;20041;-66
2023/05/08 13:13:32;;;;;;;11.65;6.05;;;26.20;37.20;;;;;;5006003;28;20081;-64
2023/05/08 13:16:05;;;;;;;9.70;4.68;;;26.20;37.10;;;;;;5004389;28;20445;-66
2023/05/08 13:18:35;;;;;;;5.88;4.63;;;26.10;36.70;;;;;;5003952;28;20050;-60
2023/05/08 13:21:03;;;;;;;6.25;4.35;;;26.10;36.60;;;;;;5003614;28;20061;-59
2023/05/08 13:23:30;;;;;;;6.97;4.47;;;26.00;36.70;;;;;;5002207;28;20112;-61
2023/05/08 13:25:58;;;;;;;5.53;3.97;;;26.10;36.70;;;;;;5003025;28;20094;-69
2023/05/08 13:28:25;;;;;;;4.65;3.78;;;26.10;36.80;;;;;;5005339;28;20049;-63
2023/05/08 13:30:52;;;;;;;4.47;3.50;;;26.10;36.60;;;;;;5003839;28;20049;-62
2023/05/08 13:33:20;;;;;;;7.88;4.35;;;26.10;36.70;;;;;;5003240;28;20073;-64
2023/05/08 13:35:48;;;;;;;6.53;4.50;;;26.10;35.90;;;;;;5004367;28;20129;-63
2023/05/08 13:38:15;;;;;;;5.35;4.38;;;26.00;36.10;;;;;;5004626;28;20061;-61
2023/05/08 13:40:42;;;;;;;4.88;4.07;;;25.90;36.10;;;;;;5004816;28;20080;-63
2023/05/08 13:43:09;;;;;;;5.45;3.88;;;25.90;36.30;;;;;;5004893;28;20060;-59
2023/05/08 13:45:36;;;;;;;5.90;4.15;;;25.90;36.60;;;;;;5007607;28;20038;-61